createdAt,value
2023-03-04T00:00:57.022Z,8.68
2023-03-04T00:04:02.364Z,10.77
2023-03-04T00:07:10.267Z,12.63
2023-03-04T00:10:15.710Z,13.20
2023-03-04T00:13:22.239Z,10.95
2023-03-04T00:16:28.003Z,8.55
2023-03-04T00:19:33.301Z,9.75
2023-03-04T00:22:41.515Z,5.30
2023-03-04T00:25:46.754Z,6.53
2023-03-04T00:28:52.205Z,6.72
2023-03-04T00:31:57.533Z,5.43
2023-03-04T00:35:02.777Z,8.30
2023-03-04T00:38:11.237Z,7.93
2023-03-04T00:41:16.501Z,8.70
2023-03-04T00:44:21.591Z,6.55
2023-03-04T00:47:26.760Z,9.15
2023-03-04T00:50:32.104Z,7.82
2023-03-04T00:53:40.312Z,7.47
2023-03-04T00:56:45.524Z,7.63
2023-03-04T00:59:50.757Z,7.60
2023-03-04T01:02:56.119Z,9.10
2023-03-04T01:06:01.550Z,10.13
2023-03-04T01:09:09.399Z,10.23
2023-03-04T01:12:15.191Z,7.90
2023-03-04T01:15:21.864Z,10.23
2023-03-04T01:18:27.096Z,7.53
2023-03-04T01:21:32.265Z,9.38
2023-03-04T01:24:40.155Z,8.57
2023-03-04T01:27:45.275Z,8.57
2023-03-04T01:30:50.685Z,14.02
2023-03-04T01:33:55.917Z,7.55
2023-03-04T01:37:01.173Z,11.98
2023-03-04T01:40:09.700Z,10.00
2023-03-04T01:43:20.490Z,10.10
2023-03-04T01:46:26.313Z,12.82
2023-03-04T01:49:31.774Z,14.23
2023-03-04T01:52:36.902Z,8.02
2023-03-04T01:55:45.085Z,10.30
2023-03-04T01:59:09.354Z,13.00
2023-03-04T02:02:15.376Z,14.38
2023-03-04T02:05:20.933Z,11.52
2023-03-04T02:08:27.715Z,13.80
2023-03-04T02:11:36.076Z,12.23
2023-03-04T02:17:46.359Z,8.75
2023-03-04T02:20:55.501Z,7.68
2023-03-04T02:24:03.892Z,11.00
2023-03-04T02:27:12.583Z,11.88
2023-03-04T02:30:18.359Z,10.57
2023-03-04T02:33:23.772Z,10.18
2023-03-04T02:36:29.432Z,10.27
2023-03-04T02:39:36.399Z,11.27
2023-03-04T02:42:46.097Z,9.70
2023-03-04T02:45:52.061Z,7.13
2023-03-04T02:48:57.706Z,11.43
2023-03-04T02:52:04.693Z,11.30
2023-03-04T02:55:10.839Z,9.88
2023-03-04T02:58:20.245Z,9.85
2023-03-04T03:01:26.156Z,10.80
2023-03-04T03:04:31.412Z,12.20
2023-03-04T03:07:37.303Z,6.82
2023-03-04T03:10:43.054Z,8.10
2023-03-04T03:13:50.842Z,10.10
2023-03-04T03:16:56.590Z,8.48
2023-03-04T03:20:01.885Z,9.90
2023-03-04T03:23:08.947Z,8.65
2023-03-04T03:26:14.329Z,7.50
2023-03-04T03:29:21.924Z,9.00
2023-03-04T03:32:27.616Z,8.35
2023-03-04T03:35:32.929Z,10.68
2023-03-04T03:38:38.316Z,12.15
2023-03-04T03:41:43.512Z,11.88
2023-03-04T03:44:51.219Z,9.90
2023-03-04T03:47:56.416Z,11.18
2023-03-04T03:51:01.842Z,8.05
2023-03-04T03:54:07.029Z,8.38
2023-03-04T03:57:12.416Z,6.20
2023-03-04T04:00:21.284Z,7.78
2023-03-04T04:03:27.026Z,9.98
2023-03-04T04:06:32.563Z,6.40
2023-03-04T04:09:37.803Z,7.30
2023-03-04T04:12:42.910Z,6.75
2023-03-04T04:15:50.847Z,6.38
2023-03-04T04:18:56.245Z,6.90
2023-03-04T04:22:01.407Z,8.07
2023-03-04T04:25:07.997Z,10.18
2023-03-04T04:28:13.285Z,11.32
2023-03-04T04:31:21.257Z,11.23
2023-03-04T04:34:26.640Z,9.77
2023-03-04T04:37:32.211Z,10.25
2023-03-04T04:40:37.483Z,14.18
2023-03-04T04:43:42.792Z,11.52
2023-03-04T04:46:50.651Z,9.63
2023-03-04T04:49:55.815Z,9.77
2023-03-04T04:53:01.137Z,10.13
2023-03-04T04:56:11.525Z,8.88
2023-03-04T04:59:17.364Z,16.60
2023-03-04T05:02:25.284Z,13.38
2023-03-04T05:05:30.546Z,13.85
2023-03-04T05:08:35.820Z,14.50
2023-03-04T05:11:41.192Z,11.38
2023-03-04T05:14:46.704Z,18.33
2023-03-04T05:17:54.578Z,11.10
2023-03-04T05:21:00.479Z,12.40
2023-03-04T05:24:05.787Z,9.75
2023-03-04T05:27:10.825Z,10.63
2023-03-04T05:30:16.437Z,12.68
2023-03-04T05:33:24.394Z,11.30
2023-03-04T05:36:29.496Z,10.02
2023-03-04T05:39:34.516Z,11.05
2023-03-04T05:42:40.230Z,11.48
2023-03-04T05:45:45.707Z,13.18
2023-03-04T05:48:53.576Z,12.35
2023-03-04T05:51:58.701Z,8.98
2023-03-04T05:55:03.822Z,9.23
2023-03-04T05:58:09.465Z,12.25
2023-03-04T06:01:14.657Z,8.85
2023-03-04T06:04:22.937Z,8.68
2023-03-04T06:07:28.134Z,12.07
2023-03-04T06:10:33.953Z,8.77
2023-03-04T06:13:39.155Z,9.52
2023-03-04T06:16:44.672Z,10.38
2023-03-04T06:19:52.327Z,11.45
2023-03-04T06:22:57.728Z,10.02
2023-03-04T06:26:03.756Z,9.63
2023-03-04T06:29:09.301Z,9.43
2023-03-04T06:32:14.604Z,8.57
2023-03-04T06:35:22.876Z,8.77
2023-03-04T06:41:32.851Z,9.40
2023-03-04T06:44:37.981Z,9.38
2023-03-04T06:47:45.007Z,7.32
2023-03-04T06:50:52.939Z,10.70
2023-03-04T06:53:58.027Z,7.53
2023-03-04T06:57:03.261Z,10.38
2023-03-04T07:00:09.190Z,9.60
2023-03-04T07:03:14.616Z,10.90
2023-03-04T07:06:23.656Z,7.53
2023-03-04T07:09:28.833Z,9.68
2023-03-04T07:12:34.097Z,9.20
2023-03-04T07:15:40.611Z,7.75
2023-03-04T07:18:45.828Z,7.00
2023-03-04T07:21:53.810Z,9.15
2023-03-04T07:24:59.109Z,7.45
2023-03-04T07:28:04.479Z,7.75
2023-03-04T07:31:14.285Z,7.85
2023-03-04T07:34:19.694Z,6.82
2023-03-04T07:37:27.606Z,9.45
2023-03-04T07:40:32.783Z,6.32
2023-03-04T07:43:38.031Z,7.93
2023-03-04T07:46:43.299Z,8.38
2023-03-04T07:49:48.735Z,8.73
2023-03-04T07:52:56.465Z,6.55
2023-03-04T07:56:02.708Z,7.30
2023-03-04T07:59:07.883Z,8.57
2023-03-04T08:02:13.896Z,7.10
2023-03-04T08:05:19.307Z,8.27
2023-03-04T08:08:27.610Z,7.30
2023-03-04T08:11:33.498Z,7.65
2023-03-04T08:14:39.718Z,10.98
2023-03-04T08:17:45.240Z,9.00
2023-03-04T08:20:50.773Z,7.30
2023-03-04T08:24:01.910Z,7.47
2023-03-04T08:27:07.924Z,6.78
2023-03-04T08:30:14.030Z,8.63
2023-03-04T08:33:19.453Z,7.68
2023-03-04T08:36:24.682Z,6.60
2023-03-04T08:39:33.804Z,10.52
2023-03-04T08:42:39.556Z,7.68
2023-03-04T08:45:44.736Z,7.43
2023-03-04T08:48:49.915Z,5.97
2023-03-04T08:51:55.119Z,6.70
2023-03-04T08:55:02.808Z,7.13
2023-03-04T08:58:09.476Z,6.65
2023-03-04T09:01:15.440Z,10.70
2023-03-04T09:04:20.853Z,9.90
2023-03-04T09:07:26.304Z,10.95
2023-03-04T09:10:34.672Z,7.30
2023-03-04T09:13:40.233Z,8.45
2023-03-04T09:16:45.642Z,5.82
2023-03-04T09:19:50.893Z,4.53
2023-03-04T09:22:56.188Z,6.72
2023-03-04T09:26:04.061Z,8.23
2023-03-04T09:29:09.264Z,9.10
2023-03-04T09:32:15.572Z,6.80
2023-03-04T09:35:20.980Z,6.38
2023-03-04T09:38:27.757Z,7.20
2023-03-04T09:41:40.412Z,6.18
2023-03-04T09:44:46.457Z,6.88
2023-03-04T09:47:52.309Z,5.93
2023-03-04T09:51:03.704Z,6.00
2023-03-04T09:54:10.764Z,6.03
2023-03-04T09:57:24.878Z,4.93
2023-03-04T10:00:35.976Z,5.97
2023-03-04T10:03:48.535Z,5.43
2023-03-04T10:06:54.961Z,5.85
2023-03-04T10:10:03.811Z,7.32
2023-03-04T10:13:13.758Z,9.35
2023-03-04T10:16:23.655Z,8.32
2023-03-04T10:19:33.634Z,4.90
2023-03-04T10:22:40.104Z,4.10
2023-03-04T10:25:47.577Z,4.93
2023-03-04T10:28:55.506Z,3.92
2023-03-04T10:32:00.878Z,3.30
2023-03-04T10:35:06.076Z,5.00
2023-03-04T10:38:13.197Z,6.82
2023-03-04T10:41:19.398Z,4.47
2023-03-04T10:44:27.525Z,3.63
2023-03-04T10:47:34.300Z,3.45
2023-03-04T10:50:39.513Z,4.88
2023-03-04T10:53:45.392Z,3.13
2023-03-04T10:56:56.764Z,2.88
2023-03-04T11:00:04.959Z,3.33
2023-03-04T11:06:19.835Z,5.68
2023-03-04T11:09:26.552Z,5.13
2023-03-04T11:12:35.930Z,4.00
2023-03-04T11:15:52.160Z,4.63
2023-03-04T11:18:58.494Z,4.13
2023-03-04T11:22:04.915Z,4.72
2023-03-04T11:25:11.803Z,4.15
2023-03-04T11:28:20.927Z,5.15
2023-03-04T11:31:31.017Z,6.55
2023-03-04T11:34:40.738Z,4.05
2023-03-04T11:37:50.901Z,4.65
2023-03-04T11:40:58.143Z,5.05
2023-03-04T11:44:03.656Z,4.68
2023-03-04T11:47:31.981Z,6.70
2023-03-04T11:50:41.813Z,6.18
2023-03-04T11:53:54.776Z,5.75
2023-03-04T11:57:02.600Z,8.32
2023-03-04T12:00:16.515Z,8.63
2023-03-04T12:03:37.071Z,6.85
2023-03-04T12:06:47.358Z,7.05
2023-03-04T12:09:59.229Z,7.88
2023-03-04T12:13:10.659Z,8.32
2023-03-04T12:16:22.866Z,11.80
2023-03-04T12:19:36.254Z,10.43
2023-03-04T12:22:46.547Z,9.48
2023-03-04T12:25:56.052Z,7.35
2023-03-04T12:29:04.270Z,7.15
2023-03-04T12:32:14.205Z,9.07
2023-03-04T12:35:30.087Z,5.80
2023-03-04T12:38:42.592Z,6.65
2023-03-04T12:41:51.576Z,12.18
2023-03-04T12:45:02.181Z,8.50
2023-03-04T12:48:10.716Z,6.95
2023-03-04T12:51:22.897Z,7.07
2023-03-04T12:54:31.690Z,8.00
2023-03-04T12:57:37.801Z,9.02
2023-03-04T13:00:48.896Z,8.50
2023-03-04T13:03:56.773Z,9.57
2023-03-04T13:07:12.924Z,3.33
2023-03-04T13:10:21.262Z,8.48
2023-03-04T13:13:47.164Z,9.00
2023-03-04T13:16:53.994Z,5.32
2023-03-04T13:20:00.617Z,7.95
2023-03-04T13:23:23.456Z,6.07
2023-03-04T13:26:32.904Z,6.07
2023-03-04T13:29:38.488Z,8.32
2023-03-04T13:32:44.369Z,4.88
2023-03-04T13:35:53.497Z,5.53
2023-03-04T13:39:04.900Z,6.22
2023-03-04T13:42:27.706Z,7.57
2023-03-04T13:45:37.612Z,7.78
2023-03-04T13:48:43.490Z,5.88
2023-03-04T13:51:48.760Z,7.43
2023-03-04T13:55:16.816Z,8.57
2023-03-04T13:58:24.517Z,6.70
2023-03-04T14:01:32.226Z,6.37
2023-03-04T14:04:38.366Z,5.35
2023-03-04T14:07:43.697Z,8.68
2023-03-04T14:10:57.306Z,5.15
2023-03-04T14:14:03.924Z,8.40
2023-03-04T14:17:09.659Z,6.18
2023-03-04T14:20:26.607Z,8.50
2023-03-04T14:23:33.097Z,6.78
2023-03-04T14:26:41.073Z,6.88
2023-03-04T14:29:46.154Z,8.73
2023-03-04T14:32:51.671Z,10.20
2023-03-04T14:35:58.266Z,6.13
2023-03-04T14:39:04.467Z,7.47
2023-03-04T14:42:14.970Z,6.90
2023-03-04T14:45:21.137Z,8.52
2023-03-04T14:48:28.751Z,10.90
2023-03-04T14:51:35.965Z,9.87
2023-03-04T14:54:43.450Z,10.95
2023-03-04T14:57:52.328Z,10.05
2023-03-04T15:01:12.024Z,10.75
2023-03-04T15:04:22.509Z,9.68
2023-03-04T15:07:30.743Z,7.68
2023-03-04T15:10:37.312Z,10.32
2023-03-04T15:13:46.477Z,8.82
2023-03-04T15:16:59.467Z,10.60
2023-03-04T15:20:06.780Z,10.48
2023-03-04T15:23:15.180Z,9.15
2023-03-04T15:26:20.759Z,7.82
2023-03-04T15:29:28.672Z,6.40
2023-03-04T15:32:34.358Z,8.60
2023-03-04T15:35:40.006Z,7.10
2023-03-04T15:38:47.880Z,8.68
2023-03-04T15:41:53.219Z,11.43
2023-03-04T15:45:01.256Z,5.40
2023-03-04T15:48:08.304Z,8.90
2023-03-04T15:51:16.611Z,11.30
2023-03-04T15:57:27.938Z,9.00
2023-03-04T16:00:35.754Z,7.93
2023-03-04T16:03:41.633Z,9.45
2023-03-04T16:06:48.225Z,11.77
2023-03-04T16:09:56.975Z,9.95
2023-03-04T16:16:12.841Z,9.40
2023-03-04T16:19:18.348Z,12.10
2023-03-04T16:22:26.086Z,11.35
2023-03-04T16:25:31.770Z,10.43
2023-03-04T16:28:36.946Z,11.75
2023-03-04T16:31:45.102Z,10.88
2023-03-04T16:34:50.838Z,13.65
2023-03-04T16:37:56.369Z,12.80
2023-03-04T16:41:02.807Z,14.82
2023-03-04T16:44:09.550Z,13.23
2023-03-04T16:47:17.926Z,10.60
2023-03-04T16:50:27.115Z,9.00
2023-03-04T16:53:35.264Z,11.32
2023-03-04T16:59:46.323Z,9.15
2023-03-04T17:02:56.741Z,8.18
2023-03-04T17:06:02.304Z,10.43
2023-03-04T17:09:07.772Z,8.80
2023-03-04T17:12:14.375Z,9.43
2023-03-04T17:15:19.859Z,7.88
2023-03-04T17:18:27.761Z,7.15
2023-03-04T17:21:33.059Z,12.15
2023-03-04T17:24:38.804Z,6.68
2023-03-04T17:27:44.162Z,10.02
2023-03-04T17:30:49.579Z,6.28
2023-03-04T17:33:57.482Z,5.38
2023-03-04T17:37:05.778Z,7.60
2023-03-04T17:40:14.304Z,4.15
2023-03-04T17:43:19.786Z,3.40
2023-03-04T17:46:26.390Z,1.42
2023-03-04T17:49:34.650Z,2.13
2023-03-04T17:52:40.004Z,1.55
2023-03-04T17:55:51.979Z,2.30
2023-03-04T17:58:57.514Z,1.77
2023-03-04T18:02:02.965Z,3.70
2023-03-04T18:05:11.888Z,3.05
2023-03-04T18:08:17.232Z,8.27
2023-03-04T18:11:23.255Z,2.70
2023-03-04T18:14:28.485Z,3.47
2023-03-04T18:17:33.933Z,3.47
2023-03-04T18:20:41.885Z,3.15
2023-03-04T18:23:47.420Z,2.80
2023-03-04T18:26:52.968Z,2.45
2023-03-04T18:29:59.125Z,3.70
2023-03-04T18:33:04.617Z,5.45
2023-03-04T18:36:14.212Z,4.18
2023-03-04T18:39:19.784Z,4.50
2023-03-04T18:42:25.168Z,4.60
2023-03-04T18:45:30.571Z,4.43
2023-03-04T18:48:36.242Z,3.03
2023-03-04T18:51:43.842Z,3.42
2023-03-04T18:54:49.238Z,5.90
2023-03-04T18:57:58.079Z,2.78
2023-03-04T19:01:05.383Z,2.88
2023-03-04T19:04:10.668Z,4.82
2023-03-04T19:07:18.645Z,12.45
2023-03-04T19:10:24.160Z,5.30
2023-03-04T19:13:30.741Z,3.78
2023-03-04T19:16:36.288Z,2.50
2023-03-04T19:19:41.658Z,2.00
2023-03-04T19:22:49.751Z,1.90
2023-03-04T19:25:54.793Z,3.88
2023-03-04T19:29:00.216Z,1.58
2023-03-04T19:32:05.303Z,3.20
2023-03-04T19:35:10.933Z,1.77
2023-03-04T19:38:19.240Z,2.55
2023-03-04T19:41:24.224Z,1.52
2023-03-04T19:44:29.533Z,0.98
2023-03-04T19:47:34.786Z,2.28
2023-03-04T19:50:40.116Z,2.17
2023-03-04T19:53:48.128Z,1.40
2023-03-04T19:56:53.505Z,1.98
2023-03-04T19:59:58.998Z,1.13
2023-03-04T20:03:07.835Z,2.03
2023-03-04T20:06:13.099Z,1.25
2023-03-04T20:09:21.199Z,7.05
2023-03-04T20:12:26.629Z,1.45
2023-03-04T20:15:32.032Z,1.85
2023-03-04T20:18:37.389Z,3.97
2023-03-04T20:21:42.634Z,5.30
2023-03-04T20:24:50.807Z,0.85
2023-03-04T20:27:56.445Z,1.73
2023-03-04T20:31:13.007Z,0.77
2023-03-04T20:34:18.204Z,0.82
2023-03-04T20:37:23.655Z,3.13
2023-03-04T20:40:31.667Z,0.85
2023-03-04T20:43:37.056Z,1.00
2023-03-04T20:46:43.488Z,2.28
2023-03-04T20:49:48.841Z,1.95
2023-03-04T20:52:54.189Z,1.23
2023-03-04T20:56:05.340Z,1.75
2023-03-04T20:59:11.571Z,1.65
2023-03-04T21:02:19.918Z,1.73
2023-03-04T21:05:24.860Z,1.75
2023-03-04T21:08:30.033Z,0.95
2023-03-04T21:11:40.910Z,1.30
2023-03-04T21:14:46.535Z,1.50
2023-03-04T21:17:51.665Z,1.90
2023-03-04T21:20:56.790Z,1.10
2023-03-04T21:24:02.685Z,1.20
2023-03-04T21:27:11.260Z,0.93
2023-03-04T21:30:17.029Z,0.82
2023-03-04T21:33:22.660Z,1.13
2023-03-04T21:36:28.184Z,2.00
2023-03-04T21:39:33.192Z,0.73
2023-03-04T21:42:41.458Z,1.80
2023-03-04T21:45:46.558Z,2.15
2023-03-04T21:48:51.764Z,2.85
2023-03-04T21:51:56.813Z,2.13
2023-03-04T21:55:02.033Z,1.60
2023-03-04T21:58:10.572Z,1.80
2023-03-04T22:01:16.586Z,0.60
2023-03-04T22:04:21.714Z,1.45
2023-03-04T22:07:27.015Z,1.27
2023-03-04T22:10:32.261Z,1.58
2023-03-04T22:13:40.516Z,1.85
2023-03-04T22:20:00.232Z,0.35
2023-03-04T22:23:05.570Z,3.10
2023-03-04T22:26:11.895Z,1.08
2023-03-04T22:29:19.736Z,3.08
2023-03-04T22:32:25.245Z,6.22
2023-03-04T22:35:30.857Z,1.10
2023-03-04T22:38:36.129Z,2.08
2023-03-04T22:41:41.330Z,2.30
2023-03-04T22:44:49.381Z,1.50
2023-03-04T22:47:55.111Z,1.80
2023-03-04T22:51:00.373Z,1.92
2023-03-04T22:54:05.569Z,2.83
2023-03-04T22:57:10.848Z,2.05
2023-03-04T23:00:23.229Z,3.58
2023-03-04T23:03:30.581Z,4.07
2023-03-04T23:06:36.093Z,2.78
2023-03-04T23:09:41.173Z,2.55
2023-03-04T23:12:46.613Z,3.08
2023-03-04T23:15:54.512Z,3.58
2023-03-04T23:18:59.926Z,4.15
2023-03-04T23:22:05.340Z,2.75
2023-03-04T23:25:11.182Z,5.28
2023-03-04T23:28:17.567Z,3.28
2023-03-04T23:31:25.917Z,2.95
2023-03-04T23:37:36.526Z,2.40
2023-03-04T23:40:41.852Z,3.10
2023-03-04T23:43:46.983Z,2.38
2023-03-04T23:46:54.775Z,3.92
2023-03-04T23:50:00.485Z,3.92
2023-03-04T23:53:05.847Z,2.95
2023-03-04T23:56:11.410Z,2.30
2023-03-04T23:59:16.629Z,3.47
